sensor_id;sensor_type;location;lat;lon;timestamp;P1;durP1;ratioP1;P2;durP2;ratioP2
24715;SDS011;12822;50.124;8.678;2023-03-01T00:00:37;22.25;;;13.43;;
24715;SDS011;12822;50.124;8.678;2023-03-01T00:03:03;22.08;;;13.35;;
24715;SDS011;12822;50.124;8.678;2023-03-01T00:05:29;22.88;;;12.60;;
24715;SDS011;12822;50.124;8.678;2023-03-01T00:07:55;22.98;;;13.50;;
24715;SDS011;12822;50.124;8.678;2023-03-01T00:10:21;22.58;;;12.68;;
24715;SDS011;12822;50.124;8.678;2023-03-01T00:12:47;24.15;;;13.02;;
24715;SDS011;12822;50.124;8.678;2023-03-01T00:15:13;20.60;;;12.75;;
24715;SDS011;12822;50.124;8.678;2023-03-01T00:17:39;22.80;;;14.13;;
24715;SDS011;12822;50.124;8.678;2023-03-01T00:20:05;23.45;;;12.93;;
24715;SDS011;12822;50.124;8.678;2023-03-01T00:22:35;21.63;;;13.50;;
24715;SDS011;12822;50.124;8.678;2023-03-01T00:25:01;24.10;;;13.68;;
24715;SDS011;12822;50.124;8.678;2023-03-01T00:27:27;21.42;;;13.45;;
24715;SDS011;12822;50.124;8.678;2023-03-01T00:29:53;21.52;;;12.85;;
24715;SDS011;12822;50.124;8.678;2023-03-01T00:32:19;23.92;;;13.73;;
24715;SDS011;12822;50.124;8.678;2023-03-01T00:34:45;23.67;;;13.20;;
24715;SDS011;12822;50.124;8.678;2023-03-01T00:37:19;21.67;;;13.52;;
24715;SDS011;12822;50.124;8.678;2023-03-01T00:39:45;26.15;;;13.07;;
24715;SDS011;12822;50.124;8.678;2023-03-01T00:42:11;21.15;;;13.57;;
24715;SDS011;12822;50.124;8.678;2023-03-01T00:44:38;21.30;;;13.00;;
24715;SDS011;12822;50.124;8.678;2023-03-01T00:47:04;28.33;;;13.35;;
24715;SDS011;12822;50.124;8.678;2023-03-01T00:49:30;23.75;;;13.23;;
24715;SDS011;12822;50.124;8.678;2023-03-01T00:51:56;22.77;;;13.65;;
24715;SDS011;12822;50.124;8.678;2023-03-01T00:54:22;25.08;;;14.25;;
24715;SDS011;12822;50.124;8.678;2023-03-01T00:56:48;23.77;;;13.73;;
24715;SDS011;12822;50.124;8.678;2023-03-01T00:59:14;22.58;;;13.10;;
24715;SDS011;12822;50.124;8.678;2023-03-01T01:01:40;24.00;;;13.68;;
24715;SDS011;12822;50.124;8.678;2023-03-01T01:04:09;28.67;;;14.55;;
24715;SDS011;12822;50.124;8.678;2023-03-01T01:06:37;24.38;;;13.02;;
24715;SDS011;12822;50.124;8.678;2023-03-01T01:09:04;20.85;;;12.80;;
24715;SDS011;12822;50.124;8.678;2023-03-01T01:11:31;24.95;;;13.60;;
24715;SDS011;12822;50.124;8.678;2023-03-01T01:13:58;25.17;;;14.48;;
24715;SDS011;12822;50.124;8.678;2023-03-01T01:16:25;19.60;;;12.80;;
24715;SDS011;12822;50.124;8.678;2023-03-01T01:18:51;20.25;;;13.07;;
24715;SDS011;12822;50.124;8.678;2023-03-01T01:21:19;22.30;;;13.10;;
24715;SDS011;12822;50.124;8.678;2023-03-01T01:23:46;27.58;;;14.00;;
24715;SDS011;12822;50.124;8.678;2023-03-01T01:26:32;20.83;;;13.27;;
24715;SDS011;12822;50.124;8.678;2023-03-01T01:28:58;26.20;;;14.02;;
24715;SDS011;12822;50.124;8.678;2023-03-01T01:31:25;26.77;;;13.82;;
24715;SDS011;12822;50.124;8.678;2023-03-01T01:33:51;25.80;;;14.85;;
24715;SDS011;12822;50.124;8.678;2023-03-01T01:36:17;24.90;;;14.65;;
24715;SDS011;12822;50.124;8.678;2023-03-01T01:38:44;26.20;;;14.43;;
24715;SDS011;12822;50.124;8.678;2023-03-01T01:41:10;22.30;;;14.27;;
24715;SDS011;12822;50.124;8.678;2023-03-01T01:43:38;19.85;;;13.23;;
24715;SDS011;12822;50.124;8.678;2023-03-01T01:46:06;26.10;;;14.00;;
24715;SDS011;12822;50.124;8.678;2023-03-01T01:48:42;25.83;;;13.07;;
24715;SDS011;12822;50.124;8.678;2023-03-01T01:51:21;24.92;;;13.77;;
24715;SDS011;12822;50.124;8.678;2023-03-01T01:53:51;24.67;;;13.70;;
24715;SDS011;12822;50.124;8.678;2023-03-01T01:56:18;31.63;;;14.63;;
24715;SDS011;12822;50.124;8.678;2023-03-01T01:58:45;28.00;;;14.85;;
24715;SDS011;12822;50.124;8.678;2023-03-01T02:01:12;23.80;;;14.40;;
24715;SDS011;12822;50.124;8.678;2023-03-01T02:03:39;24.13;;;15.07;;
24715;SDS011;12822;50.124;8.678;2023-03-01T02:08:36;24.80;;;15.02;;
24715;SDS011;12822;50.124;8.678;2023-03-01T02:11:03;29.83;;;13.68;;
24715;SDS011;12822;50.124;8.678;2023-03-01T02:13:30;26.27;;;13.98;;
24715;SDS011;12822;50.124;8.678;2023-03-01T02:15:56;27.83;;;14.80;;
24715;SDS011;12822;50.124;8.678;2023-03-01T02:18:22;24.33;;;14.77;;
24715;SDS011;12822;50.124;8.678;2023-03-01T02:20:53;23.40;;;14.15;;
24715;SDS011;12822;50.124;8.678;2023-03-01T02:23:24;27.67;;;14.80;;
24715;SDS011;12822;50.124;8.678;2023-03-01T02:25:55;27.10;;;14.93;;
24715;SDS011;12822;50.124;8.678;2023-03-01T02:30:49;26.38;;;15.32;;
24715;SDS011;12822;50.124;8.678;2023-03-01T02:33:34;28.83;;;15.40;;
24715;SDS011;12822;50.124;8.678;2023-03-01T02:36:06;25.38;;;13.80;;
24715;SDS011;12822;50.124;8.678;2023-03-01T02:38:33;24.60;;;15.18;;
24715;SDS011;12822;50.124;8.678;2023-03-01T02:40:59;25.83;;;15.43;;
24715;SDS011;12822;50.124;8.678;2023-03-01T02:43:27;25.58;;;14.00;;
24715;SDS011;12822;50.124;8.678;2023-03-01T02:45:57;26.35;;;15.10;;
24715;SDS011;12822;50.124;8.678;2023-03-01T02:48:23;27.50;;;15.40;;
24715;SDS011;12822;50.124;8.678;2023-03-01T02:51:07;25.35;;;14.70;;
24715;SDS011;12822;50.124;8.678;2023-03-01T02:53:41;23.00;;;14.07;;
24715;SDS011;12822;50.124;8.678;2023-03-01T02:56:12;26.98;;;15.00;;
24715;SDS011;12822;50.124;8.678;2023-03-01T02:58:40;28.80;;;14.73;;
24715;SDS011;12822;50.124;8.678;2023-03-01T03:01:11;29.00;;;15.60;;
24715;SDS011;12822;50.124;8.678;2023-03-01T03:03:38;24.38;;;14.98;;
24715;SDS011;12822;50.124;8.678;2023-03-01T03:06:04;28.80;;;16.10;;
24715;SDS011;12822;50.124;8.678;2023-03-01T03:08:30;27.88;;;15.68;;
24715;SDS011;12822;50.124;8.678;2023-03-01T03:10:56;25.60;;;15.27;;
24715;SDS011;12822;50.124;8.678;2023-03-01T03:13:22;29.90;;;15.82;;
24715;SDS011;12822;50.124;8.678;2023-03-01T03:15:53;25.48;;;14.70;;
24715;SDS011;12822;50.124;8.678;2023-03-01T03:18:19;24.85;;;15.38;;
24715;SDS011;12822;50.124;8.678;2023-03-01T03:20:45;26.38;;;14.48;;
24715;SDS011;12822;50.124;8.678;2023-03-01T03:23:11;29.77;;;16.15;;
24715;SDS011;12822;50.124;8.678;2023-03-01T03:25:37;30.10;;;16.90;;
24715;SDS011;12822;50.124;8.678;2023-03-01T03:28:04;30.50;;;15.27;;
24715;SDS011;12822;50.124;8.678;2023-03-01T03:30:34;25.65;;;15.38;;
24715;SDS011;12822;50.124;8.678;2023-03-01T03:33:01;29.83;;;16.35;;
24715;SDS011;12822;50.124;8.678;2023-03-01T03:35:34;29.02;;;16.38;;
24715;SDS011;12822;50.124;8.678;2023-03-01T03:38:05;28.95;;;16.30;;
24715;SDS011;12822;50.124;8.678;2023-03-01T03:43:00;31.05;;;15.85;;
24715;SDS011;12822;50.124;8.678;2023-03-01T03:45:26;33.88;;;17.08;;
24715;SDS011;12822;50.124;8.678;2023-03-01T03:47:52;24.88;;;15.30;;
24715;SDS011;12822;50.124;8.678;2023-03-01T03:50:18;30.45;;;15.73;;
24715;SDS011;12822;50.124;8.678;2023-03-01T03:52:44;29.17;;;16.80;;
24715;SDS011;12822;50.124;8.678;2023-03-01T03:55:11;27.58;;;15.50;;
24715;SDS011;12822;50.124;8.678;2023-03-01T03:57:38;28.17;;;16.42;;
24715;SDS011;12822;50.124;8.678;2023-03-01T04:00:04;28.83;;;16.00;;
24715;SDS011;12822;50.124;8.678;2023-03-01T04:02:31;28.33;;;16.60;;
24715;SDS011;12822;50.124;8.678;2023-03-01T04:04:57;29.92;;;17.00;;
24715;SDS011;12822;50.124;8.678;2023-03-01T04:07:23;29.92;;;16.58;;
24715;SDS011;12822;50.124;8.678;2023-03-01T04:09:49;31.02;;;17.73;;
24715;SDS011;12822;50.124;8.678;2023-03-01T04:12:15;27.83;;;16.50;;
24715;SDS011;12822;50.124;8.678;2023-03-01T04:14:45;35.00;;;17.67;;
24715;SDS011;12822;50.124;8.678;2023-03-01T04:17:11;35.42;;;18.00;;
24715;SDS011;12822;50.124;8.678;2023-03-01T04:19:37;31.90;;;16.75;;
24715;SDS011;12822;50.124;8.678;2023-03-01T04:22:03;40.40;;;17.88;;
24715;SDS011;12822;50.124;8.678;2023-03-01T04:24:34;33.92;;;18.40;;
24715;SDS011;12822;50.124;8.678;2023-03-01T04:27:00;31.25;;;16.70;;
24715;SDS011;12822;50.124;8.678;2023-03-01T04:29:26;35.63;;;17.63;;
24715;SDS011;12822;50.124;8.678;2023-03-01T04:31:52;35.75;;;17.05;;
24715;SDS011;12822;50.124;8.678;2023-03-01T04:34:18;35.05;;;18.08;;
24715;SDS011;12822;50.124;8.678;2023-03-01T04:36:44;34.03;;;18.33;;
24715;SDS011;12822;50.124;8.678;2023-03-01T04:39:10;30.77;;;17.30;;
24715;SDS011;12822;50.124;8.678;2023-03-01T04:41:39;29.08;;;17.25;;
24715;SDS011;12822;50.124;8.678;2023-03-01T04:44:05;33.15;;;17.75;;
24715;SDS011;12822;50.124;8.678;2023-03-01T04:46:31;34.08;;;18.77;;
24715;SDS011;12822;50.124;8.678;2023-03-01T04:48:57;34.72;;;19.67;;
24715;SDS011;12822;50.124;8.678;2023-03-01T04:51:23;34.60;;;16.83;;
24715;SDS011;12822;50.124;8.678;2023-03-01T04:53:49;30.25;;;17.90;;
24715;SDS011;12822;50.124;8.678;2023-03-01T04:56:16;34.80;;;18.42;;
24715;SDS011;12822;50.124;8.678;2023-03-01T04:58:45;32.53;;;18.23;;
24715;SDS011;12822;50.124;8.678;2023-03-01T05:01:13;35.85;;;17.58;;
24715;SDS011;12822;50.124;8.678;2023-03-01T05:03:43;32.53;;;18.58;;
24715;SDS011;12822;50.124;8.678;2023-03-01T05:06:09;36.95;;;18.20;;
24715;SDS011;12822;50.124;8.678;2023-03-01T05:08:36;31.98;;;17.58;;
24715;SDS011;12822;50.124;8.678;2023-03-01T05:11:02;36.28;;;18.60;;
24715;SDS011;12822;50.124;8.678;2023-03-01T05:13:28;31.45;;;17.02;;
24715;SDS011;12822;50.124;8.678;2023-03-01T05:15:58;29.80;;;17.95;;
24715;SDS011;12822;50.124;8.678;2023-03-01T05:18:24;29.98;;;17.40;;
24715;SDS011;12822;50.124;8.678;2023-03-01T05:20:51;33.03;;;18.52;;
24715;SDS011;12822;50.124;8.678;2023-03-01T05:23:17;34.72;;;18.00;;
24715;SDS011;12822;50.124;8.678;2023-03-01T05:25:43;34.00;;;18.58;;
24715;SDS011;12822;50.124;8.678;2023-03-01T05:28:12;33.47;;;18.60;;
24715;SDS011;12822;50.124;8.678;2023-03-01T05:30:39;32.30;;;17.00;;
24715;SDS011;12822;50.124;8.678;2023-03-01T05:33:05;36.15;;;19.38;;
24715;SDS011;12822;50.124;8.678;2023-03-01T05:35:38;32.33;;;18.17;;
24715;SDS011;12822;50.124;8.678;2023-03-01T05:38:04;29.77;;;17.70;;
24715;SDS011;12822;50.124;8.678;2023-03-01T05:40:32;34.40;;;17.95;;
24715;SDS011;12822;50.124;8.678;2023-03-01T05:42:58;36.42;;;19.17;;
24715;SDS011;12822;50.124;8.678;2023-03-01T05:45:25;36.75;;;19.38;;
24715;SDS011;12822;50.124;8.678;2023-03-01T05:47:51;32.92;;;18.25;;
24715;SDS011;12822;50.124;8.678;2023-03-01T05:50:27;31.40;;;18.67;;
24715;SDS011;12822;50.124;8.678;2023-03-01T05:52:57;35.25;;;18.92;;
24715;SDS011;12822;50.124;8.678;2023-03-01T05:55:24;31.23;;;19.00;;
24715;SDS011;12822;50.124;8.678;2023-03-01T05:57:50;34.25;;;18.65;;
24715;SDS011;12822;50.124;8.678;2023-03-01T06:00:17;31.70;;;17.83;;
24715;SDS011;12822;50.124;8.678;2023-03-01T06:02:43;30.90;;;18.40;;
24715;SDS011;12822;50.124;8.678;2023-03-01T06:05:10;33.75;;;18.27;;
24715;SDS011;12822;50.124;8.678;2023-03-01T06:07:36;33.80;;;19.70;;
24715;SDS011;12822;50.124;8.678;2023-03-01T06:10:03;36.05;;;19.15;;
24715;SDS011;12822;50.124;8.678;2023-03-01T06:12:30;33.83;;;18.90;;
24715;SDS011;12822;50.124;8.678;2023-03-01T06:14:56;37.25;;;17.88;;
24715;SDS011;12822;50.124;8.678;2023-03-01T06:17:22;32.40;;;18.55;;
24715;SDS011;12822;50.124;8.678;2023-03-01T06:19:48;36.35;;;18.33;;
24715;SDS011;12822;50.124;8.678;2023-03-01T06:22:14;33.75;;;19.15;;
24715;SDS011;12822;50.124;8.678;2023-03-01T06:24:40;32.22;;;18.17;;
24715;SDS011;12822;50.124;8.678;2023-03-01T06:27:07;33.50;;;18.10;;
24715;SDS011;12822;50.124;8.678;2023-03-01T06:29:33;33.95;;;18.10;;
24715;SDS011;12822;50.124;8.678;2023-03-01T06:31:59;34.33;;;17.80;;
24715;SDS011;12822;50.124;8.678;2023-03-01T06:34:25;35.22;;;18.40;;
24715;SDS011;12822;50.124;8.678;2023-03-01T06:36:51;32.10;;;18.13;;
24715;SDS011;12822;50.124;8.678;2023-03-01T06:39:17;31.10;;;18.25;;
24715;SDS011;12822;50.124;8.678;2023-03-01T06:41:43;35.53;;;17.33;;
24715;SDS011;12822;50.124;8.678;2023-03-01T06:44:09;32.10;;;16.50;;
24715;SDS011;12822;50.124;8.678;2023-03-01T06:46:35;38.30;;;18.35;;
24715;SDS011;12822;50.124;8.678;2023-03-01T06:49:02;28.58;;;17.05;;
24715;SDS011;12822;50.124;8.678;2023-03-01T06:51:32;30.60;;;17.42;;
24715;SDS011;12822;50.124;8.678;2023-03-01T06:53:58;32.75;;;17.52;;
24715;SDS011;12822;50.124;8.678;2023-03-01T06:56:24;39.05;;;17.88;;
24715;SDS011;12822;50.124;8.678;2023-03-01T06:58:50;33.75;;;16.45;;
24715;SDS011;12822;50.124;8.678;2023-03-01T07:01:16;37.83;;;18.25;;
24715;SDS011;12822;50.124;8.678;2023-03-01T07:03:42;29.92;;;16.80;;
24715;SDS011;12822;50.124;8.678;2023-03-01T07:06:09;32.25;;;17.38;;
24715;SDS011;12822;50.124;8.678;2023-03-01T07:08:35;33.60;;;17.40;;
24715;SDS011;12822;50.124;8.678;2023-03-01T07:11:01;30.55;;;16.90;;
24715;SDS011;12822;50.124;8.678;2023-03-01T07:13:28;39.25;;;18.40;;
24715;SDS011;12822;50.124;8.678;2023-03-01T07:15:55;34.85;;;17.85;;
24715;SDS011;12822;50.124;8.678;2023-03-01T07:18:21;30.13;;;17.25;;
24715;SDS011;12822;50.124;8.678;2023-03-01T07:20:47;30.40;;;16.48;;
24715;SDS011;12822;50.124;8.678;2023-03-01T07:23:13;32.28;;;16.75;;
24715;SDS011;12822;50.124;8.678;2023-03-01T07:25:39;34.63;;;18.10;;
24715;SDS011;12822;50.124;8.678;2023-03-01T07:28:05;27.67;;;16.88;;
24715;SDS011;12822;50.124;8.678;2023-03-01T07:30:31;32.97;;;17.42;;
24715;SDS011;12822;50.124;8.678;2023-03-01T07:32:57;35.58;;;17.98;;
24715;SDS011;12822;50.124;8.678;2023-03-01T07:35:27;30.40;;;16.90;;
24715;SDS011;12822;50.124;8.678;2023-03-01T07:37:53;34.42;;;18.02;;
24715;SDS011;12822;50.124;8.678;2023-03-01T07:40:19;35.92;;;17.63;;
24715;SDS011;12822;50.124;8.678;2023-03-01T07:42:45;30.20;;;16.92;;
24715;SDS011;12822;50.124;8.678;2023-03-01T07:45:11;32.22;;;17.45;;
24715;SDS011;12822;50.124;8.678;2023-03-01T07:47:38;30.05;;;18.40;;
24715;SDS011;12822;50.124;8.678;2023-03-01T07:50:07;26.90;;;16.08;;
24715;SDS011;12822;50.124;8.678;2023-03-01T07:52:34;29.70;;;16.75;;
24715;SDS011;12822;50.124;8.678;2023-03-01T07:55:00;28.58;;;16.58;;
24715;SDS011;12822;50.124;8.678;2023-03-01T07:57:26;31.15;;;16.63;;
24715;SDS011;12822;50.124;8.678;2023-03-01T07:59:52;31.45;;;16.85;;
24715;SDS011;12822;50.124;8.678;2023-03-01T08:02:18;34.22;;;17.90;;
24715;SDS011;12822;50.124;8.678;2023-03-01T08:04:44;32.25;;;16.60;;
24715;SDS011;12822;50.124;8.678;2023-03-01T08:07:10;30.10;;;16.08;;
24715;SDS011;12822;50.124;8.678;2023-03-01T08:09:36;26.75;;;15.85;;
24715;SDS011;12822;50.124;8.678;2023-03-01T08:12:03;26.38;;;15.13;;
24715;SDS011;12822;50.124;8.678;2023-03-01T08:14:30;28.92;;;15.82;;
24715;SDS011;12822;50.124;8.678;2023-03-01T08:16:56;26.88;;;15.80;;
24715;SDS011;12822;50.124;8.678;2023-03-01T08:19:25;28.73;;;15.55;;
24715;SDS011;12822;50.124;8.678;2023-03-01T08:21:53;28.60;;;14.73;;
24715;SDS011;12822;50.124;8.678;2023-03-01T08:24:51;25.88;;;14.93;;
24715;SDS011;12822;50.124;8.678;2023-03-01T08:27:20;27.70;;;16.10;;
24715;SDS011;12822;50.124;8.678;2023-03-01T08:29:50;28.55;;;15.48;;
24715;SDS011;12822;50.124;8.678;2023-03-01T08:32:16;26.27;;;14.85;;
24715;SDS011;12822;50.124;8.678;2023-03-01T08:34:42;21.55;;;14.48;;
24715;SDS011;12822;50.124;8.678;2023-03-01T08:37:08;28.20;;;15.85;;
24715;SDS011;12822;50.124;8.678;2023-03-01T08:39:38;24.40;;;14.75;;
24715;SDS011;12822;50.124;8.678;2023-03-01T08:42:07;20.95;;;13.73;;
24715;SDS011;12822;50.124;8.678;2023-03-01T08:44:33;25.77;;;14.48;;
24715;SDS011;12822;50.124;8.678;2023-03-01T08:47:00;26.63;;;15.45;;
24715;SDS011;12822;50.124;8.678;2023-03-01T08:49:27;24.38;;;14.73;;
24715;SDS011;12822;50.124;8.678;2023-03-01T08:51:53;22.15;;;14.13;;
24715;SDS011;12822;50.124;8.678;2023-03-01T08:54:20;22.38;;;14.63;;
24715;SDS011;12822;50.124;8.678;2023-03-01T08:56:46;25.10;;;14.93;;
24715;SDS011;12822;50.124;8.678;2023-03-01T08:59:13;22.83;;;14.40;;
24715;SDS011;12822;50.124;8.678;2023-03-01T09:01:39;21.95;;;14.43;;
24715;SDS011;12822;50.124;8.678;2023-03-01T09:04:08;19.95;;;13.90;;
24715;SDS011;12822;50.124;8.678;2023-03-01T09:06:35;23.23;;;14.82;;
24715;SDS011;12822;50.124;8.678;2023-03-01T09:09:03;21.35;;;14.38;;
24715;SDS011;12822;50.124;8.678;2023-03-01T09:11:29;22.45;;;14.60;;
24715;SDS011;12822;50.124;8.678;2023-03-01T09:13:55;20.00;;;13.90;;
24715;SDS011;12822;50.124;8.678;2023-03-01T09:16:22;20.30;;;13.85;;
24715;SDS011;12822;50.124;8.678;2023-03-01T09:18:49;21.48;;;14.23;;
24715;SDS011;12822;50.124;8.678;2023-03-01T09:21:16;24.10;;;13.88;;
24715;SDS011;12822;50.124;8.678;2023-03-01T09:23:44;22.08;;;14.40;;
24715;SDS011;12822;50.124;8.678;2023-03-01T09:26:11;20.00;;;13.20;;
24715;SDS011;12822;50.124;8.678;2023-03-01T09:28:38;21.13;;;13.88;;
24715;SDS011;12822;50.124;8.678;2023-03-01T09:31:05;25.65;;;14.93;;
24715;SDS011;12822;50.124;8.678;2023-03-01T09:33:32;21.13;;;13.93;;
24715;SDS011;12822;50.124;8.678;2023-03-01T09:35:58;21.00;;;13.48;;
24715;SDS011;12822;50.124;8.678;2023-03-01T09:38:25;23.30;;;13.68;;
24715;SDS011;12822;50.124;8.678;2023-03-01T09:40:52;26.20;;;14.38;;
24715;SDS011;12822;50.124;8.678;2023-03-01T09:45:45;21.90;;;13.95;;
24715;SDS011;12822;50.124;8.678;2023-03-01T09:48:13;21.73;;;14.48;;
24715;SDS011;12822;50.124;8.678;2023-03-01T09:50:42;24.02;;;13.95;;
24715;SDS011;12822;50.124;8.678;2023-03-01T09:53:25;20.13;;;13.82;;
24715;SDS011;12822;50.124;8.678;2023-03-01T10:00:51;19.05;;;13.60;;
24715;SDS011;12822;50.124;8.678;2023-03-01T10:06:22;23.02;;;13.27;;
24715;SDS011;12822;50.124;8.678;2023-03-01T10:11:21;19.10;;;13.20;;
24715;SDS011;12822;50.124;8.678;2023-03-01T10:16:15;17.67;;;13.30;;
24715;SDS011;12822;50.124;8.678;2023-03-01T10:18:42;20.05;;;13.27;;
24715;SDS011;12822;50.124;8.678;2023-03-01T10:21:19;22.00;;;13.65;;
24715;SDS011;12822;50.124;8.678;2023-03-01T10:23:45;18.90;;;12.95;;
24715;SDS011;12822;50.124;8.678;2023-03-01T10:31:27;21.70;;;14.27;;
24715;SDS011;12822;50.124;8.678;2023-03-01T10:34:02;19.13;;;13.68;;
24715;SDS011;12822;50.124;8.678;2023-03-01T10:36:28;19.05;;;13.70;;
24715;SDS011;12822;50.124;8.678;2023-03-01T10:38:58;20.67;;;12.88;;
24715;SDS011;12822;50.124;8.678;2023-03-01T10:41:25;20.85;;;13.77;;
24715;SDS011;12822;50.124;8.678;2023-03-01T10:43:53;17.30;;;12.93;;
24715;SDS011;12822;50.124;8.678;2023-03-01T10:46:24;18.02;;;13.68;;
24715;SDS011;12822;50.124;8.678;2023-03-01T10:49:24;20.80;;;13.48;;
24715;SDS011;12822;50.124;8.678;2023-03-01T10:51:45;15.60;;;12.35;;
24715;SDS011;12822;50.124;8.678;2023-03-01T10:54:27;17.25;;;12.18;;
24715;SDS011;12822;50.124;8.678;2023-03-01T10:56:54;18.58;;;12.90;;
24715;SDS011;12822;50.124;8.678;2023-03-01T10:59:38;15.50;;;12.57;;
24715;SDS011;12822;50.124;8.678;2023-03-01T11:02:14;15.27;;;12.13;;
24715;SDS011;12822;50.124;8.678;2023-03-01T11:04:55;16.95;;;12.27;;
24715;SDS011;12822;50.124;8.678;2023-03-01T11:07:22;18.42;;;12.43;;
24715;SDS011;12822;50.124;8.678;2023-03-01T11:09:48;13.93;;;11.60;;
24715;SDS011;12822;50.124;8.678;2023-03-01T11:12:14;18.85;;;11.73;;
24715;SDS011;12822;50.124;8.678;2023-03-01T11:14:48;15.93;;;12.15;;
24715;SDS011;12822;50.124;8.678;2023-03-01T11:19:40;17.67;;;11.63;;
24715;SDS011;12822;50.124;8.678;2023-03-01T11:22:12;16.45;;;12.40;;
24715;SDS011;12822;50.124;8.678;2023-03-01T11:27:08;15.30;;;11.75;;
24715;SDS011;12822;50.124;8.678;2023-03-01T11:29:37;17.83;;;12.23;;
24715;SDS011;12822;50.124;8.678;2023-03-01T11:32:06;17.98;;;12.00;;
24715;SDS011;12822;50.124;8.678;2023-03-01T11:37:02;14.68;;;11.50;;
24715;SDS011;12822;50.124;8.678;2023-03-01T11:42:22;15.48;;;11.45;;
24715;SDS011;12822;50.124;8.678;2023-03-01T11:44:50;15.98;;;11.32;;
24715;SDS011;12822;50.124;8.678;2023-03-01T11:47:39;15.52;;;11.30;;
24715;SDS011;12822;50.124;8.678;2023-03-01T11:50:23;14.40;;;10.00;;
24715;SDS011;12822;50.124;8.678;2023-03-01T11:53:09;16.88;;;10.82;;
24715;SDS011;12822;50.124;8.678;2023-03-01T12:08:37;12.25;;;9.27;;
24715;SDS011;12822;50.124;8.678;2023-03-01T12:11:17;14.07;;;9.88;;
24715;SDS011;12822;50.124;8.678;2023-03-01T12:16:20;15.57;;;9.50;;
24715;SDS011;12822;50.124;8.678;2023-03-01T12:21:33;14.93;;;9.75;;
24715;SDS011;12822;50.124;8.678;2023-03-01T12:42:23;12.82;;;9.70;;
24715;SDS011;12822;50.124;8.678;2023-03-01T12:47:57;13.45;;;9.45;;
24715;SDS011;12822;50.124;8.678;2023-03-01T12:50:34;11.73;;;9.40;;
24715;SDS011;12822;50.124;8.678;2023-03-01T12:53:02;14.55;;;9.75;;
24715;SDS011;12822;50.124;8.678;2023-03-01T12:55:31;11.88;;;9.02;;
24715;SDS011;12822;50.124;8.678;2023-03-01T12:58:01;13.88;;;9.60;;
24715;SDS011;12822;50.124;8.678;2023-03-01T13:00:32;13.77;;;9.23;;
24715;SDS011;12822;50.124;8.678;2023-03-01T13:11:26;11.15;;;7.90;;
24715;SDS011;12822;50.124;8.678;2023-03-01T13:13:52;12.93;;;8.75;;
24715;SDS011;12822;50.124;8.678;2023-03-01T13:19:06;14.48;;;8.35;;
24715;SDS011;12822;50.124;8.678;2023-03-01T13:21:32;14.52;;;9.07;;
24715;SDS011;12822;50.124;8.678;2023-03-01T13:23:58;14.43;;;8.75;;
24715;SDS011;12822;50.124;8.678;2023-03-01T13:26:24;11.80;;;8.82;;
24715;SDS011;12822;50.124;8.678;2023-03-01T13:28:53;13.00;;;8.35;;
24715;SDS011;12822;50.124;8.678;2023-03-01T13:36:48;12.77;;;8.93;;
24715;SDS011;12822;50.124;8.678;2023-03-01T13:41:52;10.85;;;8.70;;
24715;SDS011;12822;50.124;8.678;2023-03-01T13:44:26;12.98;;;9.48;;
24715;SDS011;12822;50.124;8.678;2023-03-01T13:47:37;12.20;;;9.10;;
24715;SDS011;12822;50.124;8.678;2023-03-01T13:49:43;16.58;;;9.45;;
24715;SDS011;12822;50.124;8.678;2023-03-01T13:52:56;14.23;;;9.40;;
24715;SDS011;12822;50.124;8.678;2023-03-01T13:54:56;13.23;;;9.15;;
24715;SDS011;12822;50.124;8.678;2023-03-01T13:57:24;13.48;;;9.25;;
24715;SDS011;12822;50.124;8.678;2023-03-01T13:59:51;14.93;;;9.25;;
24715;SDS011;12822;50.124;8.678;2023-03-01T14:02:18;13.75;;;9.77;;
24715;SDS011;12822;50.124;8.678;2023-03-01T14:04:44;14.32;;;8.93;;
24715;SDS011;12822;50.124;8.678;2023-03-01T14:07:22;12.98;;;8.98;;
24715;SDS011;12822;50.124;8.678;2023-03-01T14:09:55;14.18;;;9.00;;
24715;SDS011;12822;50.124;8.678;2023-03-01T14:20:17;14.90;;;9.55;;
24715;SDS011;12822;50.124;8.678;2023-03-01T14:22:44;18.35;;;10.10;;
24715;SDS011;12822;50.124;8.678;2023-03-01T14:25:19;16.23;;;9.32;;
24715;SDS011;12822;50.124;8.678;2023-03-01T14:27:45;10.98;;;8.18;;
24715;SDS011;12822;50.124;8.678;2023-03-01T14:33:22;13.40;;;9.05;;
24715;SDS011;12822;50.124;8.678;2023-03-01T14:35:56;13.35;;;9.85;;
24715;SDS011;12822;50.124;8.678;2023-03-01T14:38:23;15.55;;;10.10;;
24715;SDS011;12822;50.124;8.678;2023-03-01T14:40:50;12.27;;;9.15;;
24715;SDS011;12822;50.124;8.678;2023-03-01T14:43:18;14.05;;;9.52;;
24715;SDS011;12822;50.124;8.678;2023-03-01T14:45:46;13.68;;;9.43;;
24715;SDS011;12822;50.124;8.678;2023-03-01T14:48:13;14.88;;;10.25;;
24715;SDS011;12822;50.124;8.678;2023-03-01T14:50:41;14.10;;;9.70;;
24715;SDS011;12822;50.124;8.678;2023-03-01T14:53:12;12.15;;;9.32;;
24715;SDS011;12822;50.124;8.678;2023-03-01T14:55:41;14.50;;;9.45;;
24715;SDS011;12822;50.124;8.678;2023-03-01T14:58:10;19.02;;;9.35;;
24715;SDS011;12822;50.124;8.678;2023-03-01T15:00:37;15.13;;;9.90;;
24715;SDS011;12822;50.124;8.678;2023-03-01T15:03:08;16.67;;;10.70;;
24715;SDS011;12822;50.124;8.678;2023-03-01T15:05:38;15.15;;;9.65;;
24715;SDS011;12822;50.124;8.678;2023-03-01T15:08:05;15.60;;;10.10;;
24715;SDS011;12822;50.124;8.678;2023-03-01T15:10:32;16.27;;;9.90;;
24715;SDS011;12822;50.124;8.678;2023-03-01T15:13:11;14.23;;;9.55;;
24715;SDS011;12822;50.124;8.678;2023-03-01T15:15:38;15.15;;;9.50;;
24715;SDS011;12822;50.124;8.678;2023-03-01T15:18:27;17.05;;;9.98;;
24715;SDS011;12822;50.124;8.678;2023-03-01T15:20:53;14.20;;;10.20;;
24715;SDS011;12822;50.124;8.678;2023-03-01T15:23:21;15.20;;;9.70;;
24715;SDS011;12822;50.124;8.678;2023-03-01T15:25:48;16.02;;;9.70;;
24715;SDS011;12822;50.124;8.678;2023-03-01T15:28:21;14.48;;;9.10;;
24715;SDS011;12822;50.124;8.678;2023-03-01T15:30:52;15.20;;;9.40;;
24715;SDS011;12822;50.124;8.678;2023-03-01T15:33:20;15.30;;;9.60;;
24715;SDS011;12822;50.124;8.678;2023-03-01T15:35:54;16.65;;;9.27;;
24715;SDS011;12822;50.124;8.678;2023-03-01T15:40:50;17.48;;;9.52;;
24715;SDS011;12822;50.124;8.678;2023-03-01T15:46:00;14.20;;;9.18;;
24715;SDS011;12822;50.124;8.678;2023-03-01T15:48:26;13.60;;;8.80;;
24715;SDS011;12822;50.124;8.678;2023-03-01T15:50:56;14.30;;;9.30;;
24715;SDS011;12822;50.124;8.678;2023-03-01T15:53:23;17.63;;;9.23;;
24715;SDS011;12822;50.124;8.678;2023-03-01T15:55:49;13.45;;;9.05;;
24715;SDS011;12822;50.124;8.678;2023-03-01T15:58:17;15.48;;;9.18;;
24715;SDS011;12822;50.124;8.678;2023-03-01T16:00:44;18.20;;;10.20;;
24715;SDS011;12822;50.124;8.678;2023-03-01T16:03:10;16.58;;;9.80;;
24715;SDS011;12822;50.124;8.678;2023-03-01T16:05:37;15.95;;;9.35;;
24715;SDS011;12822;50.124;8.678;2023-03-01T16:08:04;14.30;;;9.57;;
24715;SDS011;12822;50.124;8.678;2023-03-01T16:10:34;19.02;;;9.80;;
24715;SDS011;12822;50.124;8.678;2023-03-01T16:13:00;14.63;;;9.40;;
24715;SDS011;12822;50.124;8.678;2023-03-01T16:15:27;17.15;;;10.07;;
24715;SDS011;12822;50.124;8.678;2023-03-01T16:17:54;19.63;;;10.45;;
24715;SDS011;12822;50.124;8.678;2023-03-01T16:20:21;15.65;;;10.00;;
24715;SDS011;12822;50.124;8.678;2023-03-01T16:22:47;16.60;;;10.05;;